createdAt,value
2019-05-14T00:00:35.379Z,9.90
2019-05-14T00:03:02.542Z,9.90
2019-05-14T00:05:31.988Z,9.90
2019-05-14T00:07:58.520Z,9.80
2019-05-14T00:10:25.372Z,9.80
2019-05-14T00:12:52.388Z,9.80
2019-05-14T00:15:21.504Z,9.80
2019-05-14T00:17:47.935Z,9.70
2019-05-14T00:20:15.015Z,9.80
2019-05-14T00:22:41.915Z,9.70
2019-05-14T00:25:11.480Z,9.60
2019-05-14T00:27:38.015Z,9.70
2019-05-14T00:30:05.671Z,9.70
2019-05-14T00:32:32.537Z,9.70
2019-05-14T00:35:01.708Z,9.60
2019-05-14T00:37:28.184Z,9.60
2019-05-14T00:39:54.887Z,9.60
2019-05-14T00:42:21.863Z,9.60
2019-05-14T00:44:54.341Z,9.60
2019-05-14T00:47:17.387Z,9.50
2019-05-14T00:49:44.264Z,9.50
2019-05-14T00:52:11.794Z,9.50
2019-05-14T00:54:38.732Z,9.50
2019-05-14T00:57:05.711Z,9.50
2019-05-14T00:59:32.584Z,9.40
2019-05-14T01:02:02.653Z,9.40
2019-05-14T01:04:28.120Z,9.30
2019-05-14T01:06:54.983Z,9.40
2019-05-14T01:09:21.999Z,9.30
2019-05-14T01:11:51.123Z,9.30
2019-05-14T01:14:17.682Z,9.30
2019-05-14T01:16:44.670Z,9.20
2019-05-14T01:19:12.429Z,9.20
2019-05-14T01:21:41.616Z,9.20
2019-05-14T01:24:08.187Z,9.20
2019-05-14T01:26:35.211Z,9.30
2019-05-14T01:29:02.153Z,9.10
2019-05-14T01:31:31.304Z,9.00
2019-05-14T01:33:57.811Z,9.00
2019-05-14T01:36:24.583Z,9.10
2019-05-14T01:38:51.557Z,9.00
2019-05-14T01:41:18.358Z,9.00
2019-05-14T01:43:45.257Z,9.00
2019-05-14T01:46:12.283Z,9.00
2019-05-14T01:48:39.058Z,8.90
2019-05-14T01:51:05.959Z,8.90
2019-05-14T01:53:32.699Z,8.90
2019-05-14T01:56:01.735Z,8.80
2019-05-14T01:58:30.680Z,8.80
2019-05-14T02:00:57.447Z,8.80
2019-05-14T02:03:24.196Z,8.80
2019-05-14T02:05:52.211Z,8.70
2019-05-14T02:08:21.280Z,8.70
2019-05-14T02:10:48.173Z,8.60
2019-05-14T02:13:15.023Z,8.60
2019-05-14T02:15:42.962Z,8.60
2019-05-14T02:18:11.134Z,8.60
2019-05-14T02:20:37.995Z,8.60
2019-05-14T02:23:04.875Z,8.60
2019-05-14T02:25:32.271Z,8.50
2019-05-14T02:28:01.371Z,8.50
2019-05-14T02:30:40.759Z,8.50
2019-05-14T02:32:59.433Z,8.40
2019-05-14T02:35:25.728Z,8.40
2019-05-14T02:37:53.472Z,8.40
2019-05-14T02:40:20.669Z,8.40
2019-05-14T02:42:49.763Z,8.40
2019-05-14T02:45:19.535Z,8.30
2019-05-14T02:47:45.147Z,8.30
2019-05-14T02:50:12.279Z,8.30
2019-05-14T02:52:40.153Z,8.30
2019-05-14T02:55:09.382Z,8.30
2019-05-14T02:57:39.191Z,8.30
2019-05-14T03:00:09.805Z,8.30
2019-05-14T03:02:35.599Z,8.20
2019-05-14T03:05:03.104Z,8.20
2019-05-14T03:07:29.979Z,8.20
2019-05-14T03:09:59.347Z,8.20
2019-05-14T03:12:25.928Z,8.10
2019-05-14T03:14:52.951Z,8.10
2019-05-14T03:17:20.307Z,8.10
2019-05-14T03:19:49.665Z,8.10
2019-05-14T03:22:24.728Z,8.10
2019-05-14T03:24:45.609Z,8.00
2019-05-14T03:27:12.671Z,8.00
2019-05-14T03:29:40.264Z,8.00
2019-05-14T03:32:12.672Z,8.00
2019-05-14T03:34:42.062Z,8.00
2019-05-14T03:37:05.342Z,8.00
2019-05-14T03:39:32.465Z,7.90
2019-05-14T03:41:59.485Z,7.90
2019-05-14T03:44:29.205Z,7.90
2019-05-14T03:47:00.226Z,7.90
2019-05-14T03:49:24.051Z,7.80
2019-05-14T03:51:50.997Z,7.80
2019-05-14T03:54:19.479Z,7.90
2019-05-14T03:56:49.736Z,7.80
2019-05-14T03:59:15.870Z,7.80
2019-05-14T04:01:43.132Z,7.80
2019-05-14T04:04:10.619Z,7.80
2019-05-14T04:06:40.349Z,7.80
2019-05-14T04:09:09.718Z,7.80
2019-05-14T04:11:39.860Z,7.80
2019-05-14T04:14:10.602Z,7.80
2019-05-14T04:16:39.921Z,7.80
2019-05-14T04:19:10.428Z,7.80
2019-05-14T04:21:39.926Z,7.80
2019-05-14T04:24:10.696Z,7.80
2019-05-14T04:26:56.141Z,7.80
2019-05-14T04:29:11.952Z,7.80
2019-05-14T04:31:40.917Z,7.80
2019-05-14T04:34:10.689Z,7.80
2019-05-14T04:36:39.178Z,7.80
2019-05-14T04:39:09.553Z,7.90
2019-05-14T04:41:35.417Z,7.90
2019-05-14T04:44:02.379Z,7.90
2019-05-14T04:46:30.479Z,7.90
2019-05-14T04:48:59.186Z,7.90
2019-05-14T04:51:26.294Z,7.90
2019-05-14T04:53:53.232Z,8.00
2019-05-14T04:56:20.144Z,8.00
2019-05-14T04:58:49.599Z,8.10
2019-05-14T05:01:16.068Z,8.10
2019-05-14T05:03:42.948Z,8.10
2019-05-14T05:06:10.173Z,8.10
2019-05-14T05:08:39.453Z,8.20
2019-05-14T05:11:09.103Z,8.30
2019-05-14T05:13:34.832Z,8.40
2019-05-14T05:16:01.681Z,8.40
2019-05-14T05:18:29.555Z,8.40
2019-05-14T05:20:58.327Z,8.50
2019-05-14T05:23:25.363Z,8.50
2019-05-14T05:25:52.159Z,8.50
2019-05-14T05:28:19.233Z,8.50
2019-05-14T05:30:46.208Z,8.70
2019-05-14T05:33:13.110Z,8.70
2019-05-14T05:35:42.308Z,8.90
2019-05-14T05:38:08.826Z,9.10
2019-05-14T05:40:35.755Z,9.30
2019-05-14T05:43:02.760Z,9.70
2019-05-14T05:45:29.645Z,10.10
2019-05-14T05:48:01.021Z,10.30
2019-05-14T05:50:25.170Z,10.30
2019-05-14T05:52:53.876Z,10.50
2019-05-14T05:55:20.961Z,10.80
2019-05-14T05:57:49.213Z,11.10
2019-05-14T06:00:30.499Z,11.30
2019-05-14T06:02:59.124Z,11.60
2019-05-14T06:05:26.292Z,11.70
2019-05-14T06:07:53.143Z,12.10
2019-05-14T06:10:19.888Z,12.50
2019-05-14T06:12:48.923Z,12.90
2019-05-14T06:15:15.467Z,13.30
2019-05-14T06:17:42.330Z,13.50
2019-05-14T06:20:09.503Z,13.90
2019-05-14T06:22:38.389Z,13.80
2019-05-14T06:25:10.535Z,14.30
2019-05-14T06:27:34.535Z,14.80
2019-05-14T06:30:01.375Z,15.20
2019-05-14T06:32:29.023Z,15.90
2019-05-14T06:34:56.080Z,16.40
2019-05-14T06:37:22.936Z,17.00
2019-05-14T06:39:49.802Z,16.70
2019-05-14T06:42:19.063Z,16.60
2019-05-14T06:44:45.568Z,15.80
2019-05-14T06:47:12.296Z,14.90
2019-05-14T06:49:39.034Z,14.70
2019-05-14T06:52:08.436Z,14.80
2019-05-14T06:54:34.551Z,15.30
2019-05-14T06:57:01.448Z,15.90
2019-05-14T06:59:28.916Z,16.20
2019-05-14T07:01:57.870Z,16.60
2019-05-14T07:04:24.797Z,17.00
2019-05-14T07:06:51.549Z,17.40
2019-05-14T07:09:18.569Z,17.40
2019-05-14T07:11:45.344Z,17.40
2019-05-14T07:14:12.112Z,17.80
2019-05-14T07:16:39.192Z,17.50
2019-05-14T07:19:06.235Z,17.20
2019-05-14T07:21:33.045Z,16.80
2019-05-14T07:23:59.889Z,17.00
2019-05-14T07:26:29.315Z,17.20
2019-05-14T07:28:55.491Z,17.60
2019-05-14T07:31:22.238Z,17.90
2019-05-14T07:33:49.585Z,17.80
2019-05-14T07:36:18.850Z,17.90
2019-05-14T07:38:45.436Z,18.00
2019-05-14T07:41:12.202Z,17.40
2019-05-14T07:43:39.458Z,17.80
2019-05-14T07:46:08.504Z,18.10
2019-05-14T07:48:35.564Z,18.60
2019-05-14T07:51:02.432Z,18.90
2019-05-14T07:53:38.543Z,18.90
2019-05-14T07:55:59.143Z,18.70
2019-05-14T07:58:28.239Z,18.70
2019-05-14T08:00:55.112Z,19.40
2019-05-14T08:03:21.981Z,19.40
2019-05-14T08:05:48.847Z,18.90
2019-05-14T08:08:15.600Z,18.50
2019-05-14T08:10:42.463Z,18.40
2019-05-14T08:13:09.460Z,18.70
2019-05-14T08:15:38.525Z,18.60
2019-05-14T08:18:05.258Z,19.00
2019-05-14T08:20:32.111Z,18.90
2019-05-14T08:22:58.943Z,19.00
2019-05-14T08:25:28.135Z,19.00
2019-05-14T08:27:54.552Z,19.30
2019-05-14T08:30:21.859Z,19.10
2019-05-14T08:32:48.982Z,18.70
2019-05-14T08:35:18.419Z,18.70
2019-05-14T08:37:44.996Z,18.60
2019-05-14T08:40:16.418Z,18.60
2019-05-14T08:42:40.925Z,19.40
2019-05-14T08:45:10.654Z,19.50
2019-05-14T08:47:39.086Z,20.30
2019-05-14T08:50:08.835Z,20.60
2019-05-14T08:52:34.946Z,21.00
2019-05-14T08:55:10.174Z,20.40
2019-05-14T08:57:30.622Z,20.00
2019-05-14T08:59:59.414Z,20.60
2019-05-14T09:02:28.506Z,20.50
2019-05-14T09:04:55.424Z,20.10
2019-05-14T09:07:22.412Z,20.30
2019-05-14T09:09:49.137Z,20.60
2019-05-14T09:12:16.082Z,21.60
2019-05-14T09:14:42.823Z,21.00
2019-05-14T09:17:10.014Z,20.20
2019-05-14T09:19:39.222Z,20.90
2019-05-14T09:22:05.658Z,19.90
2019-05-14T09:24:32.520Z,19.70
2019-05-14T09:26:59.562Z,20.10
2019-05-14T09:29:29.595Z,20.50
2019-05-14T09:31:55.120Z,19.90
2019-05-14T09:34:21.856Z,20.10
2019-05-14T09:36:49.061Z,20.50
2019-05-14T09:39:18.598Z,19.60
2019-05-14T09:41:44.650Z,18.80
2019-05-14T09:44:11.559Z,18.70
2019-05-14T09:46:38.589Z,17.70
2019-05-14T09:49:07.634Z,20.90
2019-05-14T09:51:34.226Z,20.80
2019-05-14T09:54:01.071Z,21.10
2019-05-14T09:56:29.114Z,21.10
2019-05-14T09:58:58.488Z,20.80
2019-05-14T10:01:24.872Z,21.00
2019-05-14T10:03:51.630Z,20.60
2019-05-14T10:06:20.562Z,19.90
2019-05-14T10:08:48.538Z,18.90
2019-05-14T10:11:15.574Z,17.80
2019-05-14T10:13:42.357Z,17.20
2019-05-14T10:16:09.698Z,17.10
2019-05-14T10:18:38.044Z,17.80
2019-05-14T10:21:05.256Z,17.80
2019-05-14T10:23:32.120Z,18.50
2019-05-14T10:25:59.097Z,18.50
2019-05-14T10:28:28.618Z,18.90
2019-05-14T10:30:54.853Z,20.40
2019-05-14T10:33:21.627Z,21.00
2019-05-14T10:35:48.664Z,20.00
2019-05-14T10:38:15.780Z,19.50
2019-05-14T10:40:42.639Z,19.90
2019-05-14T10:43:09.667Z,19.50
2019-05-14T10:45:38.440Z,19.40
2019-05-14T10:48:05.477Z,18.80
2019-05-14T10:50:32.332Z,17.90
2019-05-14T10:52:59.752Z,17.30
2019-05-14T10:55:27.969Z,16.60
2019-05-14T10:57:54.947Z,17.50
2019-05-14T11:00:22.031Z,19.30
2019-05-14T11:02:49.269Z,20.50
2019-05-14T11:05:18.707Z,20.90
2019-05-14T11:07:47.987Z,22.00
2019-05-14T11:10:15.449Z,22.10
2019-05-14T11:12:42.204Z,21.60
2019-05-14T11:15:09.387Z,21.90
2019-05-14T11:17:36.191Z,22.30
2019-05-14T11:20:03.461Z,23.10
2019-05-14T11:22:30.408Z,22.30
2019-05-14T11:24:59.152Z,21.30
2019-05-14T11:27:26.118Z,21.00
2019-05-14T11:29:52.989Z,22.10
2019-05-14T11:32:19.936Z,21.90
2019-05-14T11:34:46.779Z,20.40
2019-05-14T11:37:14.963Z,19.20
2019-05-14T11:39:41.839Z,18.10
2019-05-14T11:42:08.745Z,17.60
2019-05-14T11:44:37.987Z,17.80
2019-05-14T11:47:04.644Z,18.70
2019-05-14T11:49:31.647Z,18.80
2019-05-14T11:52:06.876Z,19.20
2019-05-14T11:54:29.215Z,18.50
2019-05-14T11:56:55.892Z,17.70
2019-05-14T11:59:22.659Z,17.10
2019-05-14T12:01:49.572Z,16.70
2019-05-14T12:04:18.673Z,17.80
2019-05-14T12:06:45.248Z,18.60
2019-05-14T12:09:12.235Z,18.30
2019-05-14T12:11:39.048Z,17.60
2019-05-14T12:14:08.597Z,16.70
2019-05-14T12:16:34.854Z,16.60
2019-05-14T12:19:01.739Z,16.50
2019-05-14T12:21:28.925Z,16.40
2019-05-14T12:24:03.062Z,17.20
2019-05-14T12:26:24.863Z,18.10
2019-05-14T12:28:51.643Z,19.00
2019-05-14T12:31:18.491Z,19.00
2019-05-14T12:33:45.307Z,18.30
2019-05-14T12:36:12.160Z,17.30
2019-05-14T12:38:39.133Z,16.90
2019-05-14T12:41:08.941Z,17.00
2019-05-14T12:43:35.016Z,17.20
2019-05-14T12:46:01.779Z,17.20
2019-05-14T12:48:29.813Z,17.40
2019-05-14T12:50:59.382Z,17.20
2019-05-14T12:53:28.506Z,16.90
2019-05-14T12:55:54.510Z,16.80
2019-05-14T12:58:21.508Z,16.70
2019-05-14T13:00:48.825Z,16.70
2019-05-14T13:03:15.801Z,16.40
2019-05-14T13:05:42.765Z,16.40
2019-05-14T13:08:11.456Z,16.10
2019-05-14T13:10:38.664Z,16.20
2019-05-14T13:13:08.221Z,16.20
2019-05-14T13:15:34.635Z,16.20
2019-05-14T13:18:01.502Z,16.30
2019-05-14T13:20:29.082Z,16.40
2019-05-14T13:22:56.144Z,16.50
2019-05-14T13:25:23.103Z,16.50
2019-05-14T13:27:49.962Z,16.50
2019-05-14T13:30:18.609Z,16.20
2019-05-14T13:32:45.571Z,15.90
2019-05-14T13:35:14.025Z,15.80
2019-05-14T13:37:40.851Z,15.80
2019-05-14T13:40:09.569Z,15.70
2019-05-14T13:42:38.874Z,16.00
2019-05-14T13:45:05.970Z,16.30
2019-05-14T13:47:32.862Z,16.40
2019-05-14T13:49:59.848Z,16.60
2019-05-14T13:52:29.229Z,16.40
2019-05-14T13:54:55.637Z,16.20
2019-05-14T13:57:22.567Z,15.90
2019-05-14T13:59:49.741Z,16.20
2019-05-14T14:02:18.915Z,16.50
2019-05-14T14:04:45.394Z,16.70
2019-05-14T14:07:12.674Z,16.60
2019-05-14T14:09:39.754Z,16.40
2019-05-14T14:12:08.228Z,16.20
2019-05-14T14:14:35.374Z,16.30
2019-05-14T14:17:02.260Z,16.30
2019-05-14T14:19:29.120Z,16.30
2019-05-14T14:21:58.855Z,16.20
2019-05-14T14:24:24.952Z,16.20
2019-05-14T14:26:51.824Z,16.40
2019-05-14T14:29:18.943Z,16.60
2019-05-14T14:31:45.871Z,16.80
2019-05-14T14:34:18.020Z,16.60
2019-05-14T14:36:44.355Z,16.40
2019-05-14T14:39:11.095Z,16.40
2019-05-14T14:41:38.493Z,16.40
2019-05-14T14:44:08.564Z,16.10
2019-05-14T14:46:34.627Z,16.40
2019-05-14T14:49:02.702Z,16.30
2019-05-14T14:51:29.784Z,16.30
2019-05-14T14:54:02.847Z,16.10
2019-05-14T14:56:25.467Z,16.10
2019-05-14T14:58:52.352Z,16.10
2019-05-14T15:01:19.871Z,16.00
2019-05-14T15:03:49.568Z,16.20
2019-05-14T15:06:15.908Z,16.50
2019-05-14T15:08:42.643Z,16.50
2019-05-14T15:11:09.507Z,16.60
2019-05-14T15:13:38.591Z,16.60
2019-05-14T15:16:05.250Z,16.50
2019-05-14T15:18:32.179Z,16.50
2019-05-14T15:20:59.159Z,16.40
2019-05-14T15:23:28.500Z,16.30
2019-05-14T15:25:54.972Z,16.30
2019-05-14T15:28:21.827Z,16.50
2019-05-14T15:30:49.920Z,16.70
2019-05-14T15:33:18.938Z,17.00
2019-05-14T15:35:45.856Z,17.10
2019-05-14T15:38:12.709Z,17.20
2019-05-14T15:40:39.950Z,16.60
2019-05-14T15:43:09.867Z,16.10
2019-05-14T15:45:37.755Z,15.90
2019-05-14T15:48:04.516Z,15.80
2019-05-14T15:50:32.855Z,15.80
2019-05-14T15:53:00.189Z,16.00
2019-05-14T15:55:28.913Z,16.10
2019-05-14T15:57:58.915Z,16.20
2019-05-14T16:00:24.767Z,16.30
2019-05-14T16:02:51.501Z,15.90
2019-05-14T16:05:18.966Z,15.80
2019-05-14T16:07:49.229Z,15.60
2019-05-14T16:10:15.339Z,15.20
2019-05-14T16:12:42.239Z,15.30
2019-05-14T16:15:09.625Z,15.30
2019-05-14T16:17:45.374Z,15.30
2019-05-14T16:20:08.950Z,15.30
2019-05-14T16:22:35.394Z,15.30
2019-05-14T16:25:02.288Z,15.30
2019-05-14T16:27:29.926Z,15.10
2019-05-14T16:29:58.667Z,15.10
2019-05-14T16:32:28.364Z,15.00
2019-05-14T16:34:55.100Z,15.10
2019-05-14T16:37:23.831Z,15.20
2019-05-14T16:39:50.553Z,15.20
2019-05-14T16:42:20.743Z,15.40
2019-05-14T16:44:46.233Z,15.50
2019-05-14T16:47:13.091Z,15.40
2019-05-14T16:49:39.957Z,15.40
2019-05-14T16:52:09.066Z,15.40
2019-05-14T16:54:35.552Z,15.40
2019-05-14T16:57:02.405Z,15.90
2019-05-14T16:59:29.730Z,15.30
2019-05-14T17:01:58.508Z,15.30
2019-05-14T17:04:25.507Z,15.20
2019-05-14T17:06:52.370Z,15.10
2019-05-14T17:09:19.242Z,15.00
2019-05-14T17:11:48.199Z,14.90
2019-05-14T17:14:15.160Z,14.80
2019-05-14T17:16:42.192Z,14.70
2019-05-14T17:19:09.392Z,14.60
2019-05-14T17:21:38.882Z,14.60
2019-05-14T17:24:05.203Z,14.50
2019-05-14T17:26:31.987Z,14.50
2019-05-14T17:28:59.615Z,14.50
2019-05-14T17:31:26.698Z,14.50
2019-05-14T17:33:53.646Z,14.60
2019-05-14T17:36:20.549Z,14.60
2019-05-14T17:38:49.265Z,14.60
2019-05-14T17:41:16.044Z,14.50
2019-05-14T17:43:43.027Z,14.40
2019-05-14T17:46:10.164Z,14.50
2019-05-14T17:48:39.066Z,14.40
2019-05-14T17:51:06.083Z,14.40
2019-05-14T17:53:32.989Z,14.30
2019-05-14T17:55:59.743Z,14.30
2019-05-14T17:58:28.600Z,14.10
2019-05-14T18:00:58.010Z,14.10
2019-05-14T18:03:24.189Z,13.90
2019-05-14T18:05:51.096Z,13.90
2019-05-14T18:08:18.596Z,13.80
2019-05-14T18:10:45.644Z,13.80
2019-05-14T18:13:12.507Z,13.70
2019-05-14T18:15:39.640Z,13.70
2019-05-14T18:18:08.870Z,13.60
2019-05-14T18:20:35.694Z,13.60
2019-05-14T18:23:02.495Z,13.50
2019-05-14T18:25:29.381Z,13.40
2019-05-14T18:27:56.234Z,13.40
2019-05-14T18:30:23.095Z,13.30
2019-05-14T18:32:50.123Z,13.30
2019-05-14T18:35:18.792Z,13.40
2019-05-14T18:37:48.132Z,13.30
2019-05-14T18:40:15.079Z,13.30
2019-05-14T18:42:41.859Z,13.30
2019-05-14T18:45:09.313Z,13.20
2019-05-14T18:47:36.084Z,13.20
2019-05-14T18:50:04.273Z,13.10
2019-05-14T18:52:31.240Z,13.00
2019-05-14T18:54:59.079Z,13.00
2019-05-14T18:57:28.503Z,12.90
2019-05-14T18:59:55.106Z,12.80
2019-05-14T19:02:22.186Z,12.80
2019-05-14T19:04:49.026Z,12.70
2019-05-14T19:07:15.911Z,12.60
2019-05-14T19:09:42.774Z,12.60
2019-05-14T19:12:09.835Z,12.60
2019-05-14T19:14:38.784Z,12.50
2019-05-14T19:17:05.587Z,12.50
2019-05-14T19:19:32.471Z,12.50
2019-05-14T19:21:59.443Z,12.30
2019-05-14T19:24:28.490Z,12.10
2019-05-14T19:26:55.359Z,12.20
2019-05-14T19:29:22.131Z,12.20
2019-05-14T19:31:49.031Z,12.10
2019-05-14T19:34:16.231Z,12.00
2019-05-14T19:36:43.243Z,12.00
2019-05-14T19:39:10.327Z,11.90
2019-05-14T19:41:40.325Z,12.80
2019-05-14T19:44:09.153Z,11.90
2019-05-14T19:46:38.611Z,11.80
2019-05-14T19:49:08.142Z,11.80
2019-05-14T19:51:39.244Z,11.70
2019-05-14T19:54:08.301Z,11.70
2019-05-14T19:56:52.429Z,11.70
2019-05-14T19:59:18.335Z,11.80
2019-05-14T20:01:52.238Z,11.60
2019-05-14T20:04:19.312Z,11.50
2019-05-14T20:06:46.352Z,11.50
2019-05-14T20:09:13.228Z,11.50
2019-05-14T20:11:40.231Z,11.50
2019-05-14T20:14:06.943Z,11.40
2019-05-14T20:16:33.815Z,11.40
2019-05-14T20:19:00.764Z,11.30
2019-05-14T20:21:28.325Z,11.30
2019-05-14T20:23:55.306Z,11.20
2019-05-14T20:26:22.215Z,11.10
2019-05-14T20:28:49.147Z,11.00
2019-05-14T20:31:17.946Z,10.90
2019-05-14T20:33:44.668Z,10.80
2019-05-14T20:36:12.168Z,10.70
2019-05-14T20:38:39.063Z,10.60
2019-05-14T20:41:06.068Z,10.40
2019-05-14T20:43:33.151Z,10.40
2019-05-14T20:46:00.138Z,10.30
2019-05-14T20:48:28.159Z,10.20
2019-05-14T20:50:55.128Z,10.10
2019-05-14T20:53:22.097Z,10.10
2019-05-14T20:55:49.095Z,10.10
2019-05-14T20:58:15.995Z,10.10
2019-05-14T21:00:42.927Z,10.00
2019-05-14T21:03:09.916Z,10.00
2019-05-14T21:05:38.898Z,9.90
2019-05-14T21:08:05.641Z,9.90
2019-05-14T21:10:32.502Z,10.00
2019-05-14T21:12:59.407Z,10.00
2019-05-14T21:15:28.667Z,9.90
2019-05-14T21:17:54.978Z,10.00
2019-05-14T21:20:21.811Z,9.90
2019-05-14T21:22:48.655Z,10.00
2019-05-14T21:25:18.267Z,10.00
2019-05-14T21:27:48.714Z,10.00
2019-05-14T21:30:13.755Z,9.90
2019-05-14T21:32:42.549Z,9.90
2019-05-14T21:35:09.559Z,9.90
2019-05-14T21:37:39.016Z,9.90
2019-05-14T21:40:06.256Z,9.80
2019-05-14T21:42:33.069Z,9.90
2019-05-14T21:44:59.975Z,9.90
2019-05-14T21:47:28.549Z,9.70
2019-05-14T21:49:55.567Z,9.70
2019-05-14T21:52:22.417Z,9.80
2019-05-14T21:54:49.287Z,9.70
2019-05-14T21:57:16.075Z,9.70
2019-05-14T21:59:42.819Z,9.60
2019-05-14T22:02:21.810Z,9.60
2019-05-14T22:04:39.689Z,9.60
2019-05-14T22:07:06.488Z,9.70
2019-05-14T22:09:34.166Z,9.50
2019-05-14T22:12:01.007Z,9.40
2019-05-14T22:14:28.356Z,9.40
2019-05-14T22:16:55.294Z,9.40
2019-05-14T22:19:22.146Z,9.40
2019-05-14T22:21:49.198Z,9.50
2019-05-14T22:24:16.323Z,9.40
2019-05-14T22:26:43.193Z,9.40
2019-05-14T22:29:09.943Z,9.40
2019-05-14T22:31:38.773Z,9.40
2019-05-14T22:34:05.680Z,9.60
2019-05-14T22:36:32.552Z,9.40
2019-05-14T22:38:59.447Z,9.40
2019-05-14T22:41:28.934Z,9.50
2019-05-14T22:43:56.980Z,9.40
2019-05-14T22:46:24.051Z,9.30
2019-05-14T22:48:51.692Z,9.40
2019-05-14T22:51:19.027Z,9.30
2019-05-14T22:53:45.978Z,9.30
2019-05-14T22:56:12.807Z,9.30
2019-05-14T22:58:39.556Z,9.20
2019-05-14T23:01:14.611Z,9.20
2019-05-14T23:03:35.630Z,9.20
2019-05-14T23:06:02.499Z,9.20
2019-05-14T23:08:29.683Z,9.20
2019-05-14T23:10:58.827Z,9.10
2019-05-14T23:13:25.070Z,9.20
2019-05-14T23:15:51.807Z,9.00
2019-05-14T23:18:18.650Z,9.00
2019-05-14T23:20:45.611Z,9.00
2019-05-14T23:23:12.649Z,8.90
2019-05-14T23:25:39.367Z,8.90
2019-05-14T23:28:08.331Z,8.80
2019-05-14T23:30:34.973Z,8.80
2019-05-14T23:33:01.717Z,8.80
2019-05-14T23:35:29.131Z,8.70
2019-05-14T23:37:58.626Z,8.70
2019-05-14T23:40:24.960Z,8.70
2019-05-14T23:42:52.211Z,8.80
2019-05-14T23:45:19.217Z,8.70
2019-05-14T23:47:48.709Z,8.70
2019-05-14T23:50:15.088Z,8.70
2019-05-14T23:52:42.010Z,8.70
2019-05-14T23:55:09.691Z,8.50
2019-05-14T23:57:36.792Z,8.60
